sensor_id;sensor_type;location;lat;lon;timestamp;pressure;altitude;pressure_sealevel;temperature;humidity
54262;BME280;40174;52.364;6.452;2023-02-18T00:01:59;101844.69;;;8.45;100.00
54262;BME280;40174;52.364;6.452;2023-02-18T00:04:25;101852.53;;;8.46;100.00
54262;BME280;40174;52.364;6.452;2023-02-18T00:06:52;101850.91;;;8.44;100.00
54262;BME280;40174;52.364;6.452;2023-02-18T00:09:20;101852.78;;;8.42;100.00
54262;BME280;40174;52.364;6.452;2023-02-18T00:11:46;101847.50;;;8.42;100.00
54262;BME280;40174;52.364;6.452;2023-02-18T00:14:14;101837.03;;;8.40;100.00
54262;BME280;40174;52.364;6.452;2023-02-18T00:16:42;101841.44;;;8.40;100.00
54262;BME280;40174;52.364;6.452;2023-02-18T00:19:11;101831.72;;;8.42;100.00
54262;BME280;40174;52.364;6.452;2023-02-18T00:21:39;101829.22;;;8.39;100.00
54262;BME280;40174;52.364;6.452;2023-02-18T00:24:06;101829.22;;;8.39;100.00
54262;BME280;40174;52.364;6.452;2023-02-18T00:26:35;101837.88;;;8.41;100.00
54262;BME280;40174;52.364;6.452;2023-02-18T00:29:02;101829.84;;;8.44;100.00
54262;BME280;40174;52.364;6.452;2023-02-18T00:31:30;101828.22;;;8.41;100.00
54262;BME280;40174;52.364;6.452;2023-02-18T00:34:00;101825.41;;;8.44;100.00
54262;BME280;40174;52.364;6.452;2023-02-18T00:36:27;101826.34;;;8.43;100.00
54262;BME280;40174;52.364;6.452;2023-02-18T00:38:56;101827.19;;;8.44;100.00
54262;BME280;40174;52.364;6.452;2023-02-18T00:41:24;101823.63;;;8.45;100.00
54262;BME280;40174;52.364;6.452;2023-02-18T00:43:53;101821.09;;;8.43;100.00
54262;BME280;40174;52.364;6.452;2023-02-18T00:46:20;101823.72;;;8.43;100.00
54262;BME280;40174;52.364;6.452;2023-02-18T00:48:48;101819.22;;;8.45;100.00
54262;BME280;40174;52.364;6.452;2023-02-18T00:51:15;101818.47;;;8.43;100.00
54262;BME280;40174;52.364;6.452;2023-02-18T00:53:41;101810.56;;;8.43;100.00
54262;BME280;40174;52.364;6.452;2023-02-18T00:56:08;101811.41;;;8.44;100.00
54262;BME280;40174;52.364;6.452;2023-02-18T00:58:35;101811.22;;;8.47;100.00
54262;BME280;40174;52.364;6.452;2023-02-18T01:01:06;101798.72;;;8.50;100.00
54262;BME280;40174;52.364;6.452;2023-02-18T01:03:33;101802.47;;;8.46;100.00
54262;BME280;40174;52.364;6.452;2023-02-18T01:06:00;101800.59;;;8.48;100.00
54262;BME280;40174;52.364;6.452;2023-02-18T01:08:26;101802.28;;;8.49;100.00
54262;BME280;40174;52.364;6.452;2023-02-18T01:10:54;101801.63;;;8.46;100.00
54262;BME280;40174;52.364;6.452;2023-02-18T01:13:21;101798.88;;;8.47;100.00
54262;BME280;40174;52.364;6.452;2023-02-18T01:15:48;101793.47;;;8.50;100.00
54262;BME280;40174;52.364;6.452;2023-02-18T01:18:16;101781.19;;;8.49;100.00
54262;BME280;40174;52.364;6.452;2023-02-18T01:20:44;101766.53;;;8.45;100.00
54262;BME280;40174;52.364;6.452;2023-02-18T01:23:11;101780.44;;;8.47;100.00
54262;BME280;40174;52.364;6.452;2023-02-18T01:25:39;101777.81;;;8.47;100.00
54262;BME280;40174;52.364;6.452;2023-02-18T01:28:08;101770.78;;;8.48;100.00
54262;BME280;40174;52.364;6.452;2023-02-18T01:30:35;101774.94;;;8.52;100.00
54262;BME280;40174;52.364;6.452;2023-02-18T01:33:03;101775.94;;;8.49;100.00
54262;BME280;40174;52.364;6.452;2023-02-18T01:35:31;101761.66;;;8.53;100.00
54262;BME280;40174;52.364;6.452;2023-02-18T01:37:58;101759.13;;;8.52;100.00
54262;BME280;40174;52.364;6.452;2023-02-18T01:40:27;101754.69;;;8.52;100.00
54262;BME280;40174;52.364;6.452;2023-02-18T01:42:55;101759.13;;;8.52;100.00
54262;BME280;40174;52.364;6.452;2023-02-18T01:45:50;101749.44;;;8.52;100.00
54262;BME280;40174;52.364;6.452;2023-02-18T01:48:19;101745.00;;;8.53;100.00
54262;BME280;40174;52.364;6.452;2023-02-18T01:50:52;101746.59;;;8.56;100.00
54262;BME280;40174;52.364;6.452;2023-02-18T01:53:24;101741.41;;;8.54;100.00
54262;BME280;40174;52.364;6.452;2023-02-18T01:55:52;101744.94;;;8.55;100.00
54262;BME280;40174;52.364;6.452;2023-02-18T01:58:18;101743.97;;;8.56;100.00
54262;BME280;40174;52.364;6.452;2023-02-18T02:00:45;101741.34;;;8.56;100.00
54262;BME280;40174;52.364;6.452;2023-02-18T02:03:13;101728.75;;;8.61;100.00
54262;BME280;40174;52.364;6.452;2023-02-18T02:05:42;101731.38;;;8.61;100.00
54262;BME280;40174;52.364;6.452;2023-02-18T02:08:15;101733.25;;;8.59;100.00
54262;BME280;40174;52.364;6.452;2023-02-18T02:10:53;101723.47;;;8.61;100.00
54262;BME280;40174;52.364;6.452;2023-02-18T02:13:27;101719.72;;;8.65;100.00
54262;BME280;40174;52.364;6.452;2023-02-18T02:15:59;101705.63;;;8.66;100.00
54262;BME280;40174;52.364;6.452;2023-02-18T02:18:45;101691.56;;;8.65;100.00
54262;BME280;40174;52.364;6.452;2023-02-18T02:21:40;101682.81;;;8.65;100.00
54262;BME280;40174;52.364;6.452;2023-02-18T02:24:40;101674.09;;;8.64;100.00
54262;BME280;40174;52.364;6.452;2023-02-18T02:27:14;101675.03;;;8.63;100.00
54262;BME280;40174;52.364;6.452;2023-02-18T02:36:14;101662.69;;;8.64;100.00
54262;BME280;40174;52.364;6.452;2023-02-18T02:38:49;101664.22;;;8.68;100.00
54262;BME280;40174;52.364;6.452;2023-02-18T02:41:27;101665.22;;;8.65;100.00
54262;BME280;40174;52.364;6.452;2023-02-18T02:44:08;101667.00;;;8.65;100.00
54262;BME280;40174;52.364;6.452;2023-02-18T02:46:39;101659.09;;;8.65;100.00
54262;BME280;40174;52.364;6.452;2023-02-18T02:49:13;101654.59;;;8.67;100.00
54262;BME280;40174;52.364;6.452;2023-02-18T02:51:49;101656.31;;;8.68;100.00
54262;BME280;40174;52.364;6.452;2023-02-18T02:54:21;101647.72;;;8.64;100.00
54262;BME280;40174;52.364;6.452;2023-02-18T02:56:49;101637.09;;;8.66;100.00
54262;BME280;40174;52.364;6.452;2023-02-18T02:59:23;101622.22;;;8.65;100.00
54262;BME280;40174;52.364;6.452;2023-02-18T03:02:06;101631.91;;;8.64;100.00
54262;BME280;40174;52.364;6.452;2023-02-18T03:04:58;101618.81;;;8.63;100.00
54262;BME280;40174;52.364;6.452;2023-02-18T03:07:48;101609.22;;;8.62;100.00
54262;BME280;40174;52.364;6.452;2023-02-18T03:10:40;101596.91;;;8.62;100.00
54262;BME280;40174;52.364;6.452;2023-02-18T03:13:20;101600.38;;;8.63;100.00
54262;BME280;40174;52.364;6.452;2023-02-18T03:15:54;101588.06;;;8.63;100.00
54262;BME280;40174;52.364;6.452;2023-02-18T03:18:25;101589.00;;;8.62;100.00
54262;BME280;40174;52.364;6.452;2023-02-18T03:20:56;101582.97;;;8.60;100.00
54262;BME280;40174;52.364;6.452;2023-02-18T03:23:27;101579.28;;;8.63;100.00
54262;BME280;40174;52.364;6.452;2023-02-18T03:25:58;101589.94;;;8.61;100.00
54262;BME280;40174;52.364;6.452;2023-02-18T03:28:27;101583.81;;;8.61;100.00
54262;BME280;40174;52.364;6.452;2023-02-18T03:30:59;101576.94;;;8.58;100.00
54262;BME280;40174;52.364;6.452;2023-02-18T03:33:31;101580.53;;;8.57;100.00
54262;BME280;40174;52.364;6.452;2023-02-18T03:35:59;101577.03;;;8.57;100.00
54262;BME280;40174;52.364;6.452;2023-02-18T03:38:32;101572.78;;;8.54;100.00
54262;BME280;40174;52.364;6.452;2023-02-18T03:41:02;101574.50;;;8.55;100.00
54262;BME280;40174;52.364;6.452;2023-02-18T03:43:29;101574.69;;;8.52;100.00
54262;BME280;40174;52.364;6.452;2023-02-18T03:45:56;101562.34;;;8.52;100.00
54262;BME280;40174;52.364;6.452;2023-02-18T03:48:23;101558.00;;;8.51;100.00
54262;BME280;40174;52.364;6.452;2023-02-18T03:50:51;101555.28;;;8.53;100.00
54262;BME280;40174;52.364;6.452;2023-02-18T03:53:18;101553.50;;;8.53;100.00
54262;BME280;40174;52.364;6.452;2023-02-18T03:55:46;101548.59;;;8.47;100.00
54262;BME280;40174;52.364;6.452;2023-02-18T03:58:12;101545.88;;;8.49;100.00
54262;BME280;40174;52.364;6.452;2023-02-18T04:00:39;101526.50;;;8.50;100.00
54262;BME280;40174;52.364;6.452;2023-02-18T04:03:05;101527.34;;;8.50;100.00
54262;BME280;40174;52.364;6.452;2023-02-18T04:05:32;101526.50;;;8.50;100.00
54262;BME280;40174;52.364;6.452;2023-02-18T04:07:58;101526.59;;;8.48;100.00
54262;BME280;40174;52.364;6.452;2023-02-18T04:10:25;101522.25;;;8.47;100.00
54262;BME280;40174;52.364;6.452;2023-02-18T04:12:53;101514.25;;;8.49;100.00
54262;BME280;40174;52.364;6.452;2023-02-18T04:15:19;101508.16;;;8.48;100.00
54262;BME280;40174;52.364;6.452;2023-02-18T04:17:46;101505.22;;;8.53;100.00
54262;BME280;40174;52.364;6.452;2023-02-18T04:20:13;101510.59;;;8.51;100.00
54262;BME280;40174;52.364;6.452;2023-02-18T04:22:40;101504.56;;;8.49;100.00
54262;BME280;40174;52.364;6.452;2023-02-18T04:25:07;101481.59;;;8.51;100.00
54262;BME280;40174;52.364;6.452;2023-02-18T04:27:34;101489.50;;;8.51;100.00
54262;BME280;40174;52.364;6.452;2023-02-18T04:30:02;101483.47;;;8.49;100.00
54262;BME280;40174;52.364;6.452;2023-02-18T04:32:29;101482.66;;;8.49;100.00
54262;BME280;40174;52.364;6.452;2023-02-18T04:34:55;101484.91;;;8.55;100.00
54262;BME280;40174;52.364;6.452;2023-02-18T04:37:22;101484.06;;;8.55;100.00
54262;BME280;40174;52.364;6.452;2023-02-18T04:39:49;101482.28;;;8.55;100.00
54262;BME280;40174;52.364;6.452;2023-02-18T04:42:15;101473.41;;;8.56;100.00
54262;BME280;40174;52.364;6.452;2023-02-18T04:44:42;101482.06;;;8.58;100.00
54262;BME280;40174;52.364;6.452;2023-02-18T04:47:10;101477.56;;;8.60;100.00
54262;BME280;40174;52.364;6.452;2023-02-18T04:49:36;101463.47;;;8.61;100.00
54262;BME280;40174;52.364;6.452;2023-02-18T04:52:03;101453.00;;;8.60;100.00
54262;BME280;40174;52.364;6.452;2023-02-18T04:54:30;101433.59;;;8.61;100.00
54262;BME280;40174;52.364;6.452;2023-02-18T04:56:57;101444.91;;;8.63;100.00
54262;BME280;40174;52.364;6.452;2023-02-18T04:59:23;101421.84;;;8.66;100.00
54262;BME280;40174;52.364;6.452;2023-02-18T05:01:50;101422.69;;;8.67;100.00
54262;BME280;40174;52.364;6.452;2023-02-18T05:04:18;101413.72;;;8.69;100.00
54262;BME280;40174;52.364;6.452;2023-02-18T05:06:45;101412.59;;;8.73;100.00
54262;BME280;40174;52.364;6.452;2023-02-18T05:09:11;101404.78;;;8.72;100.00
54262;BME280;40174;52.364;6.452;2023-02-18T05:11:38;101401.22;;;8.73;100.00
54262;BME280;40174;52.364;6.452;2023-02-18T05:14:05;101395.94;;;8.73;100.00
54262;BME280;40174;52.364;6.452;2023-02-18T05:16:31;101398.38;;;8.76;100.00
54262;BME280;40174;52.364;6.452;2023-02-18T05:18:58;101392.34;;;8.74;100.00
54262;BME280;40174;52.364;6.452;2023-02-18T05:21:26;101399.03;;;8.80;100.00
54262;BME280;40174;52.364;6.452;2023-02-18T05:23:53;101394.13;;;8.88;100.00
54262;BME280;40174;52.364;6.452;2023-02-18T05:26:19;101393.28;;;8.87;100.00
54262;BME280;40174;52.364;6.452;2023-02-18T05:28:46;101382.84;;;8.86;100.00
54262;BME280;40174;52.364;6.452;2023-02-18T05:31:13;101377.66;;;8.84;100.00
54262;BME280;40174;52.364;6.452;2023-02-18T05:33:39;101369.75;;;8.84;100.00
54262;BME280;40174;52.364;6.452;2023-02-18T05:36:06;101363.44;;;8.87;100.00
54262;BME280;40174;52.364;6.452;2023-02-18T05:38:34;101364.09;;;8.90;100.00
54262;BME280;40174;52.364;6.452;2023-02-18T05:41:01;101363.97;;;8.92;100.00
54262;BME280;40174;52.364;6.452;2023-02-18T05:43:27;101357.03;;;8.91;100.00
54262;BME280;40174;52.364;6.452;2023-02-18T05:45:54;101348.91;;;8.94;100.00
54262;BME280;40174;52.364;6.452;2023-02-18T05:48:21;101357.78;;;8.93;100.00
54262;BME280;40174;52.364;6.452;2023-02-18T05:50:47;101355.22;;;8.91;100.00
54262;BME280;40174;52.364;6.452;2023-02-18T05:53:18;101347.31;;;8.91;100.00
54262;BME280;40174;52.364;6.452;2023-02-18T05:55:46;101335.63;;;8.95;100.00
54262;BME280;40174;52.364;6.452;2023-02-18T05:58:12;101355.69;;;8.98;100.00
54262;BME280;40174;52.364;6.452;2023-02-18T06:00:41;101340.38;;;9.03;100.00
54262;BME280;40174;52.364;6.452;2023-02-18T06:03:07;101337.00;;;9.01;100.00
54262;BME280;40174;52.364;6.452;2023-02-18T06:05:34;101337.66;;;9.05;100.00
54262;BME280;40174;52.364;6.452;2023-02-18T06:08:01;101349.16;;;9.04;100.00
54262;BME280;40174;52.364;6.452;2023-02-18T06:10:27;101332.28;;;9.06;100.00
54262;BME280;40174;52.364;6.452;2023-02-18T06:12:55;101337.56;;;9.06;100.00
54262;BME280;40174;52.364;6.452;2023-02-18T06:15:22;101336.72;;;9.06;100.00
54262;BME280;40174;52.364;6.452;2023-02-18T06:17:48;101332.75;;;9.13;100.00
54262;BME280;40174;52.364;6.452;2023-02-18T06:20:15;101333.78;;;9.10;100.00
54262;BME280;40174;52.364;6.452;2023-02-18T06:22:42;101340.84;;;9.10;100.00
54262;BME280;40174;52.364;6.452;2023-02-18T06:25:08;101330.41;;;9.08;100.00
54262;BME280;40174;52.364;6.452;2023-02-18T06:27:35;101336.50;;;9.09;100.00
54262;BME280;40174;52.364;6.452;2023-02-18T06:30:04;101346.09;;;9.10;100.00
54262;BME280;40174;52.364;6.452;2023-02-18T06:32:30;101350.44;;;9.11;100.00
54262;BME280;40174;52.364;6.452;2023-02-18T06:34:57;101347.06;;;9.09;100.00
54262;BME280;40174;52.364;6.452;2023-02-18T06:37:24;101352.34;;;9.09;100.00
54262;BME280;40174;52.364;6.452;2023-02-18T06:39:50;101350.44;;;9.11;100.00
54262;BME280;40174;52.364;6.452;2023-02-18T06:42:18;101345.19;;;9.11;100.00
54262;BME280;40174;52.364;6.452;2023-02-18T06:44:45;101345.06;;;9.12;100.00
54262;BME280;40174;52.364;6.452;2023-02-18T06:47:13;101340.00;;;9.09;100.00
54262;BME280;40174;52.364;6.452;2023-02-18T06:49:40;101334.50;;;9.12;100.00
54262;BME280;40174;52.364;6.452;2023-02-18T06:52:08;101341.88;;;9.07;100.00
54262;BME280;40174;52.364;6.452;2023-02-18T06:54:34;101328.81;;;9.06;100.00
54262;BME280;40174;52.364;6.452;2023-02-18T06:57:01;101322.59;;;9.07;100.00
54262;BME280;40174;52.364;6.452;2023-02-18T06:59:29;101320.91;;;9.06;100.00
54262;BME280;40174;52.364;6.452;2023-02-18T07:01:56;101325.31;;;9.05;100.00
54262;BME280;40174;52.364;6.452;2023-02-18T07:04:24;101317.41;;;9.05;100.00
54262;BME280;40174;52.364;6.452;2023-02-18T07:06:50;101326.06;;;9.07;100.00
54262;BME280;40174;52.364;6.452;2023-02-18T07:09:18;101337.44;;;9.08;100.00
54262;BME280;40174;52.364;6.452;2023-02-18T07:11:46;101320.69;;;9.09;100.00
54262;BME280;40174;52.364;6.452;2023-02-18T07:14:13;101315.13;;;9.13;100.00
54262;BME280;40174;52.364;6.452;2023-02-18T07:16:39;101320.59;;;9.10;100.00
54262;BME280;40174;52.364;6.452;2023-02-18T07:19:06;101307.50;;;9.09;100.00
54262;BME280;40174;52.364;6.452;2023-02-18T07:21:34;101314.75;;;9.05;100.00
54262;BME280;40174;52.364;6.452;2023-02-18T07:24:01;101305.09;;;9.06;100.00
54262;BME280;40174;52.364;6.452;2023-02-18T07:26:28;101315.22;;;9.12;100.00
54262;BME280;40174;52.364;6.452;2023-02-18T07:28:54;101317.97;;;9.10;100.00
54262;BME280;40174;52.364;6.452;2023-02-18T07:31:21;101322.19;;;9.13;100.00
54262;BME280;40174;52.364;6.452;2023-02-18T07:33:48;101317.84;;;9.12;100.00
54262;BME280;40174;52.364;6.452;2023-02-18T07:36:18;101314.38;;;9.11;100.00
54262;BME280;40174;52.364;6.452;2023-02-18T07:38:46;101320.78;;;9.07;100.00
54262;BME280;40174;52.364;6.452;2023-02-18T07:41:16;101321.53;;;9.09;100.00
54262;BME280;40174;52.364;6.452;2023-02-18T07:43:43;101326.91;;;9.08;100.00
54262;BME280;40174;52.364;6.452;2023-02-18T07:46:10;101329.97;;;9.14;100.00
54262;BME280;40174;52.364;6.452;2023-02-18T07:48:38;101330.72;;;9.16;100.00
54262;BME280;40174;52.364;6.452;2023-02-18T07:51:09;101335.25;;;9.14;100.00
54262;BME280;40174;52.364;6.452;2023-02-18T07:53:39;101315.94;;;9.14;100.00
54262;BME280;40174;52.364;6.452;2023-02-18T07:56:08;101320.47;;;9.12;100.00
54262;BME280;40174;52.364;6.452;2023-02-18T07:58:37;101325.56;;;9.15;100.00
54262;BME280;40174;52.364;6.452;2023-02-18T08:06:30;101323.94;;;9.12;100.00
54262;BME280;40174;52.364;6.452;2023-02-18T08:11:35;101316.78;;;9.14;100.00
54262;BME280;40174;52.364;6.452;2023-02-18T08:14:02;101319.34;;;9.16;100.00
54262;BME280;40174;52.364;6.452;2023-02-18T08:16:31;101315.13;;;9.13;100.00
54262;BME280;40174;52.364;6.452;2023-02-18T08:18:58;101317.75;;;9.13;100.00
54262;BME280;40174;52.364;6.452;2023-02-18T08:21:25;101308.25;;;9.11;100.00
54262;BME280;40174;52.364;6.452;2023-02-18T08:23:52;101318.50;;;9.15;100.00
54262;BME280;40174;52.364;6.452;2023-02-18T08:26:19;101316.03;;;9.12;100.00
54262;BME280;40174;52.364;6.452;2023-02-18T08:28:47;101309.63;;;9.16;100.00
54262;BME280;40174;52.364;6.452;2023-02-18T08:31:17;101316.78;;;9.14;100.00
54262;BME280;40174;52.364;6.452;2023-02-18T08:33:44;101316.03;;;9.12;100.00
54262;BME280;40174;52.364;6.452;2023-02-18T08:36:10;101328.41;;;9.12;100.00
54262;BME280;40174;52.364;6.452;2023-02-18T08:38:38;101319.72;;;9.10;100.00
54262;BME280;40174;52.364;6.452;2023-02-18T08:41:07;101325.00;;;9.10;100.00
54262;BME280;40174;52.364;6.452;2023-02-18T08:54:16;101336.50;;;9.09;100.00
54262;BME280;40174;52.364;6.452;2023-02-18T08:56:43;101320.38;;;9.13;100.00
54262;BME280;40174;52.364;6.452;2023-02-18T08:59:10;101309.84;;;9.13;100.00
54262;BME280;40174;52.364;6.452;2023-02-18T09:04:12;101316.03;;;9.12;100.00
54262;BME280;40174;52.364;6.452;2023-02-18T09:06:39;101325.34;;;9.18;100.00
54262;BME280;40174;52.364;6.452;2023-02-18T09:09:06;101320.69;;;9.09;100.00
54262;BME280;40174;52.364;6.452;2023-02-18T09:19:33;101346.00;;;9.11;100.00
54262;BME280;40174;52.364;6.452;2023-02-18T09:27:24;101336.91;;;9.03;100.00
54262;BME280;40174;52.364;6.452;2023-02-18T09:29:52;101336.28;;;8.99;100.00
54262;BME280;40174;52.364;6.452;2023-02-18T09:32:19;101327.50;;;8.99;100.00
54262;BME280;40174;52.364;6.452;2023-02-18T13:22:23;101409.59;;;10.38;100.00
54262;BME280;40174;52.364;6.452;2023-02-18T13:24:56;101404.53;;;10.35;100.00
54262;BME280;40174;52.364;6.452;2023-02-18T13:27:29;101413.09;;;10.38;100.00
54262;BME280;40174;52.364;6.452;2023-02-18T13:30:16;101399.66;;;10.42;100.00
54262;BME280;40174;52.364;6.452;2023-02-18T13:32:53;101410.13;;;10.43;100.00
54262;BME280;40174;52.364;6.452;2023-02-18T13:35:28;101404.94;;;10.42;100.00
54262;BME280;40174;52.364;6.452;2023-02-18T13:38:11;101409.31;;;10.43;100.00
54262;BME280;40174;52.364;6.452;2023-02-18T13:40:44;101409.91;;;10.46;100.00
54262;BME280;40174;52.364;6.452;2023-02-18T13:43:19;101391.91;;;10.51;100.00
54262;BME280;40174;52.364;6.452;2023-02-18T13:46:02;101406.09;;;10.50;100.00
54262;BME280;40174;52.364;6.452;2023-02-18T13:48:31;101403.22;;;10.53;100.00
54262;BME280;40174;52.364;6.452;2023-02-18T13:51:02;101405.78;;;10.55;100.00
54262;BME280;40174;52.364;6.452;2023-02-18T13:53:34;101415.72;;;10.51;100.00
54262;BME280;40174;52.364;6.452;2023-02-18T13:56:07;101408.41;;;10.55;100.00
54262;BME280;40174;52.364;6.452;2023-02-18T13:58:37;101409.50;;;10.52;100.00
54262;BME280;40174;52.364;6.452;2023-02-18T14:01:14;101414.69;;;10.54;100.00
54262;BME280;40174;52.364;6.452;2023-02-18T14:03:57;101403.22;;;10.53;100.00
54262;BME280;40174;52.364;6.452;2023-02-18T14:06:28;101414.53;;;10.55;100.00
54262;BME280;40174;52.364;6.452;2023-02-18T14:09:33;101409.38;;;10.54;100.00
54262;BME280;40174;52.364;6.452;2023-02-18T14:12:16;101425.25;;;10.54;100.00
54262;BME280;40174;52.364;6.452;2023-02-18T14:14:44;101420.91;;;10.53;100.00
54262;BME280;40174;52.364;6.452;2023-02-18T14:17:39;101426.09;;;10.54;100.00
54262;BME280;40174;52.364;6.452;2023-02-18T14:23:58;101422.19;;;10.47;100.00
54262;BME280;40174;52.364;6.452;2023-02-18T14:26:30;101425.88;;;10.45;100.00
54262;BME280;40174;52.364;6.452;2023-02-18T14:29:08;101418.06;;;10.43;100.00
54262;BME280;40174;52.364;6.452;2023-02-18T14:31:50;101429.47;;;10.44;100.00
54262;BME280;40174;52.364;6.452;2023-02-18T14:40:50;101432.03;;;10.45;100.00
54262;BME280;40174;52.364;6.452;2023-02-18T14:43:31;101434.75;;;10.44;100.00
54262;BME280;40174;52.364;6.452;2023-02-18T14:46:18;101433.09;;;10.43;100.00
54262;BME280;40174;52.364;6.452;2023-02-18T14:49:08;101441.72;;;10.45;100.00
54262;BME280;40174;52.364;6.452;2023-02-18T14:51:41;101433.69;;;10.46;100.00
54262;BME280;40174;52.364;6.452;2023-02-18T14:54:13;101440.88;;;10.44;100.00
54262;BME280;40174;52.364;6.452;2023-02-18T14:56:49;101445.22;;;10.45;100.00
54262;BME280;40174;52.364;6.452;2023-02-18T14:59:20;101452.84;;;10.50;100.00
54262;BME280;40174;52.364;6.452;2023-02-18T15:01:47;101439.22;;;10.43;100.00
54262;BME280;40174;52.364;6.452;2023-02-18T15:04:14;101447.97;;;10.44;100.00
54262;BME280;40174;52.364;6.452;2023-02-18T15:06:41;101450.63;;;10.44;100.00
54262;BME280;40174;52.364;6.452;2023-02-18T15:09:13;101452.84;;;10.50;100.00
54262;BME280;40174;52.364;6.452;2023-02-18T15:11:42;101458.53;;;10.44;100.00
54262;BME280;40174;52.364;6.452;2023-02-18T15:14:15;101453.34;;;10.42;100.00
54262;BME280;40174;52.364;6.452;2023-02-18T15:16:44;101451.59;;;10.43;100.00
54262;BME280;40174;52.364;6.452;2023-02-18T15:19:13;101462.25;;;10.41;100.00
54262;BME280;40174;52.364;6.452;2023-02-18T15:21:44;101457.72;;;10.43;100.00
54262;BME280;40174;52.364;6.452;2023-02-18T15:24:22;101465.81;;;10.40;100.00
54262;BME280;40174;52.364;6.452;2023-02-18T15:26:49;101460.66;;;10.38;100.00
54262;BME280;40174;52.364;6.452;2023-02-18T15:29:18;101471.25;;;10.38;100.00
54262;BME280;40174;52.364;6.452;2023-02-18T15:31:47;101462.34;;;10.39;100.00
54262;BME280;40174;52.364;6.452;2023-02-18T15:34:38;101457.28;;;10.36;100.00
54262;BME280;40174;52.364;6.452;2023-02-18T15:37:07;101470.38;;;10.38;100.00
54262;BME280;40174;52.364;6.452;2023-02-18T15:39:35;101473.25;;;10.35;100.00
54262;BME280;40174;52.364;6.452;2023-02-18T15:42:07;101483.19;;;10.31;100.00
54262;BME280;40174;52.364;6.452;2023-02-18T15:44:35;101479.97;;;10.26;100.00
54262;BME280;40174;52.364;6.452;2023-02-18T15:47:07;101484.03;;;10.32;100.00
54262;BME280;40174;52.364;6.452;2023-02-18T15:49:37;101489.50;;;10.29;100.00
54262;BME280;40174;52.364;6.452;2023-02-18T15:52:05;101471.19;;;10.26;100.00
54262;BME280;40174;52.364;6.452;2023-02-18T15:54:33;101470.56;;;10.22;100.00
54262;BME280;40174;52.364;6.452;2023-02-18T15:57:04;101498.69;;;10.23;100.00
54262;BME280;40174;52.364;6.452;2023-02-18T15:59:32;101486.53;;;10.20;100.00
54262;BME280;40174;52.364;6.452;2023-02-18T16:02:11;101492.00;;;10.17;100.00
54262;BME280;40174;52.364;6.452;2023-02-18T16:04:41;101478.78;;;10.17;100.00
54262;BME280;40174;52.364;6.452;2023-02-18T16:07:23;101483.34;;;10.15;100.00
54262;BME280;40174;52.364;6.452;2023-02-18T16:10:05;101477.22;;;10.15;100.00
54262;BME280;40174;52.364;6.452;2023-02-18T16:12:33;101481.97;;;10.10;100.00
54262;BME280;40174;52.364;6.452;2023-02-18T16:15:03;101489.81;;;10.11;100.00
54262;BME280;40174;52.364;6.452;2023-02-18T16:17:31;101488.94;;;10.11;100.00
54262;BME280;40174;52.364;6.452;2023-02-18T16:20:00;101490.63;;;10.12;100.00
54262;BME280;40174;52.364;6.452;2023-02-18T16:22:33;101506.41;;;10.13;100.00
54262;BME280;40174;52.364;6.452;2023-02-18T16:25:06;101498.66;;;10.10;100.00
54262;BME280;40174;52.364;6.452;2023-02-18T16:27:35;101489.16;;;10.08;100.00
54262;BME280;40174;52.364;6.452;2023-02-18T16:30:13;101498.03;;;10.07;100.00
54262;BME280;40174;52.364;6.452;2023-02-18T16:32:42;101495.28;;;10.08;100.00
54262;BME280;40174;52.364;6.452;2023-02-18T16:35:10;101492.94;;;10.04;100.00
54262;BME280;40174;52.364;6.452;2023-02-18T16:37:37;101498.13;;;10.05;100.00
54262;BME280;40174;52.364;6.452;2023-02-18T16:40:22;101491.44;;;9.99;100.00
54262;BME280;40174;52.364;6.452;2023-02-18T16:42:49;101495.16;;;9.97;100.00
54262;BME280;40174;52.364;6.452;2023-02-18T16:45:16;101484.91;;;9.92;100.00
54262;BME280;40174;52.364;6.452;2023-02-18T16:47:49;101508.66;;;9.92;100.00
54262;BME280;40174;52.364;6.452;2023-02-18T16:50:18;101501.59;;;9.93;100.00
54262;BME280;40174;52.364;6.452;2023-02-18T16:52:49;101517.56;;;9.91;100.00
54262;BME280;40174;52.364;6.452;2023-02-18T16:55:17;101509.63;;;9.91;100.00
54262;BME280;40174;52.364;6.452;2023-02-18T16:57:49;101496.59;;;9.88;100.00
54262;BME280;40174;52.364;6.452;2023-02-18T17:00:17;101495.69;;;9.89;100.00
54262;BME280;40174;52.364;6.452;2023-02-18T17:02:47;101500.97;;;9.89;100.00
54262;BME280;40174;52.364;6.452;2023-02-18T17:05:19;101497.56;;;9.87;100.00
54262;BME280;40174;52.364;6.452;2023-02-18T17:07:46;101495.88;;;9.86;100.00
54262;BME280;40174;52.364;6.452;2023-02-18T17:10:13;101506.56;;;9.85;100.00
54262;BME280;40174;52.364;6.452;2023-02-18T17:12:40;101512.88;;;9.82;100.00
54262;BME280;40174;52.364;6.452;2023-02-18T17:15:25;101510.78;;;9.87;100.00
54262;BME280;40174;52.364;6.452;2023-02-18T17:17:55;101509.50;;;9.80;100.00
54262;BME280;40174;52.364;6.452;2023-02-18T17:20:23;101515.09;;;9.75;100.00
54262;BME280;40174;52.364;6.452;2023-02-18T17:22:50;101510.56;;;9.77;100.00
54262;BME280;40174;52.364;6.452;2023-02-18T17:25:20;101515.09;;;9.75;100.00
54262;BME280;40174;52.364;6.452;2023-02-18T17:27:47;101513.38;;;9.74;100.00
54262;BME280;40174;52.364;6.452;2023-02-18T17:30:15;101504.53;;;9.75;100.00
54262;BME280;40174;52.364;6.452;2023-02-18T17:32:42;101514.22;;;9.75;100.00
54262;BME280;40174;52.364;6.452;2023-02-18T17:35:16;101524.91;;;9.73;100.00
54262;BME280;40174;52.364;6.452;2023-02-18T17:37:43;101516.84;;;9.75;100.00
54262;BME280;40174;52.364;6.452;2023-02-18T17:42:39;101511.69;;;9.73;100.00
54262;BME280;40174;52.364;6.452;2023-02-18T17:45:13;101511.78;;;9.72;100.00